Time;durP1;ratioP1;P1;durP2;ratioP2;P2;SDS_P1;SDS_P2;PMS_P1;PMS_P2;Temp;Humidity;BMP_temperature;BMP_pressure;BME280_temperature;BME280_humidity;BME280_pressure;Samples;Min_cycle;Max_cycle;Signal;HPM_P1;HPM_P2
2022/10/06 00:02:14;;;;;;;11.27;10.30;;;13.00;99.90;;;;;;6240504;28;20475;-62
2022/10/06 00:05:18;;;;;;;10.83;9.97;;;13.00;99.90;;;;;;6239843;28;20804;-63
2022/10/06 00:08:21;;;;;;;11.10;9.30;;;13.00;99.90;;;;;;6237208;28;20479;-62
2022/10/06 00:11:25;;;;;;;9.30;8.40;;;13.00;99.90;;;;;;6236827;28;20476;-63
2022/10/06 00:14:28;;;;;;;8.80;8.10;;;12.90;99.90;;;;;;6240775;28;21045;-63
2022/10/06 00:17:31;;;;;;;8.10;7.50;;;12.80;99.90;;;;;;6239581;28;20814;-63
2022/10/06 00:20:36;;;;;;;8.33;7.63;;;12.80;99.90;;;;;;6239682;28;20802;-63
2022/10/06 00:23:39;;;;;;;7.30;6.70;;;12.80;99.90;;;;;;6252418;28;20528;-63
2022/10/06 00:26:42;;;;;;;7.87;7.07;;;12.80;99.90;;;;;;6252490;28;20475;-62
2022/10/06 00:29:45;;;;;;;7.03;6.43;;;12.70;99.90;;;;;;6252683;28;20478;-62
2022/10/06 00:32:53;;;;;;;6.57;5.97;;;12.70;99.90;;;;;;6247722;28;20493;-63
2022/10/06 00:35:59;;;;;;;9.00;7.40;;;12.70;99.90;;;;;;6252079;28;20483;-63
2022/10/06 00:39:03;;;;;;;7.47;6.70;;;12.60;99.90;;;;;;6252648;28;20483;-63
2022/10/06 00:42:20;;;;;;;6.63;6.13;;;12.60;99.90;;;;;;6252196;28;20471;-64
2022/10/06 00:45:29;;;;;;;7.43;6.60;;;12.60;99.90;;;;;;6252308;28;21029;-62
2022/10/06 00:48:32;;;;;;;9.57;7.00;;;12.60;99.90;;;;;;6251691;28;20471;-62
2022/10/06 00:51:40;;;;;;;7.87;7.00;;;12.50;99.90;;;;;;6251746;28;20443;-62
2022/10/06 00:54:44;;;;;;;6.57;6.07;;;12.50;99.90;;;;;;6251824;28;20487;-62
2022/10/06 00:57:47;;;;;;;10.67;6.70;;;12.50;99.90;;;;;;6251746;28;20454;-62
2022/10/06 01:00:53;;;;;;;6.07;5.47;;;12.50;99.90;;;;;;6257632;28;20455;-63
2022/10/06 01:04:04;;;;;;;7.57;6.87;;;12.50;99.90;;;;;;6257797;28;20471;-60
2022/10/06 01:07:08;;;;;;;7.70;6.80;;;12.50;99.90;;;;;;6251528;28;20474;-59
2022/10/06 01:10:12;;;;;;;7.37;6.67;;;12.50;99.90;;;;;;6251910;28;20475;-59
2022/10/06 01:13:16;;;;;;;10.70;6.80;;;12.50;99.90;;;;;;6251694;28;20479;-65
2022/10/06 01:16:23;;;;;;;7.03;6.33;;;12.40;99.90;;;;;;6251922;28;20498;-63
2022/10/06 01:19:36;;;;;;;7.03;6.00;;;12.30;99.90;;;;;;6251737;28;20483;-63
2022/10/06 01:22:44;;;;;;;7.07;6.40;;;12.30;99.90;;;;;;6251729;28;20476;-63
2022/10/06 01:25:47;;;;;;;9.00;7.67;;;12.30;99.90;;;;;;6240861;28;20908;-64
2022/10/06 01:28:51;;;;;;;7.47;6.23;;;12.30;99.90;;;;;;6226749;28;20478;-64
2022/10/06 01:31:54;;;;;;;7.57;6.77;;;12.30;99.90;;;;;;6226742;28;20823;-62
2022/10/06 01:34:58;;;;;;;7.87;7.07;;;12.30;99.90;;;;;;6228810;28;20484;-60
2022/10/06 01:38:02;;;;;;;8.67;7.70;;;12.30;99.90;;;;;;6250848;28;20549;-63
2022/10/06 01:41:05;;;;;;;7.17;6.27;;;12.30;99.90;;;;;;6250936;28;20475;-64
2022/10/06 01:44:09;;;;;;;7.97;7.27;;;12.30;99.90;;;;;;6250562;28;20480;-63
2022/10/06 01:47:12;;;;;;;6.87;6.17;;;12.30;99.90;;;;;;6250516;28;20471;-59
2022/10/06 01:50:16;;;;;;;7.73;7.13;;;12.30;99.90;;;;;;6250826;28;20483;-63
2022/10/06 01:53:21;;;;;;;8.03;7.33;;;12.30;99.90;;;;;;6250887;28;20858;-60
2022/10/06 01:56:24;;;;;;;7.20;6.23;;;12.20;99.90;;;;;;6250200;28;20487;-63
2022/10/06 01:59:28;;;;;;;7.10;6.43;;;12.30;99.90;;;;;;6250031;28;20482;-60
2022/10/06 02:02:31;;;;;;;7.87;7.10;;;12.20;99.90;;;;;;6249199;28;20972;-62
2022/10/06 02:05:34;;;;;;;10.60;8.77;;;12.20;99.90;;;;;;6250285;28;20474;-60
2022/10/06 02:08:39;;;;;;;11.20;9.53;;;12.10;99.90;;;;;;6250166;28;20983;-59
2022/10/06 02:11:42;;;;;;;14.43;12.97;;;12.10;99.90;;;;;;6250264;28;20486;-62
2022/10/06 02:14:45;;;;;;;14.97;13.67;;;12.10;99.90;;;;;;6249948;28;21066;-62
2022/10/06 02:17:49;;;;;;;12.67;11.47;;;12.00;99.90;;;;;;6249812;28;20480;-62
2022/10/06 02:20:52;;;;;;;11.03;10.20;;;12.00;99.90;;;;;;6250521;28;20483;-63
2022/10/06 02:23:56;;;;;;;12.47;11.37;;;12.00;99.90;;;;;;6249765;28;20463;-59
2022/10/06 02:26:59;;;;;;;10.40;8.93;;;11.90;99.90;;;;;;6249789;28;20483;-58
2022/10/06 02:30:03;;;;;;;9.63;8.80;;;11.80;99.90;;;;;;6249936;28;20983;-62
2022/10/06 02:33:06;;;;;;;8.00;7.30;;;11.80;99.90;;;;;;6249754;28;20812;-62
2022/10/06 02:36:11;;;;;;;7.53;6.83;;;11.80;99.90;;;;;;6249393;28;20499;-60
2022/10/06 02:39:16;;;;;;;8.30;7.50;;;11.80;99.90;;;;;;6249786;28;20479;-60
2022/10/06 02:42:19;;;;;;;12.27;7.83;;;11.70;99.90;;;;;;6244671;28;20560;-59
2022/10/06 02:45:22;;;;;;;7.70;7.00;;;11.70;99.90;;;;;;6249081;28;20564;-61
2022/10/06 02:48:26;;;;;;;10.37;7.63;;;11.70;99.90;;;;;;6249369;28;21014;-64
2022/10/06 02:51:31;;;;;;;8.43;7.53;;;11.60;99.90;;;;;;6254391;28;20455;-62
2022/10/06 02:54:35;;;;;;;8.20;7.27;;;11.60;99.90;;;;;;6252580;28;20542;-62
2022/10/06 02:57:39;;;;;;;8.20;6.57;;;11.60;99.90;;;;;;6249802;28;20455;-62
2022/10/06 03:00:42;;;;;;;8.40;6.47;;;11.60;99.90;;;;;;6249339;28;20447;-62
2022/10/06 03:03:46;;;;;;;7.77;6.43;;;11.60;99.90;;;;;;6248973;28;20443;-62
2022/10/06 03:06:50;;;;;;;15.20;7.10;;;11.60;99.90;;;;;;6249219;28;20900;-62
2022/10/06 03:09:54;;;;;;;9.87;8.97;;;11.50;99.90;;;;;;6249521;28;20533;-58
2022/10/06 03:12:57;;;;;;;10.20;9.33;;;11.40;99.90;;;;;;6248651;28;20467;-58
2022/10/06 03:16:00;;;;;;;8.53;7.73;;;11.40;99.90;;;;;;6249044;28;20490;-59
2022/10/06 03:19:03;;;;;;;9.70;8.23;;;11.30;99.90;;;;;;6248934;28;20467;-62
2022/10/06 03:22:07;;;;;;;8.70;7.90;;;11.20;99.90;;;;;;6249065;28;20847;-62
2022/10/06 03:25:11;;;;;;;8.50;7.60;;;11.30;99.90;;;;;;6248602;28;20536;-62
2022/10/06 03:28:16;;;;;;;7.97;6.97;;;11.30;99.90;;;;;;6248823;28;20821;-62
2022/10/06 03:31:19;;;;;;;7.57;6.80;;;11.40;99.90;;;;;;6249023;28;20475;-64
2022/10/06 03:34:23;;;;;;;7.47;6.80;;;11.30;99.90;;;;;;6248337;28;20486;-63
2022/10/06 03:37:28;;;;;;;7.50;6.70;;;11.30;99.90;;;;;;6248867;28;20475;-65
2022/10/06 03:40:32;;;;;;;6.57;5.97;;;11.20;99.90;;;;;;6248754;28;20957;-63
2022/10/06 03:43:36;;;;;;;8.40;6.93;;;11.20;99.90;;;;;;6248961;28;20507;-63
2022/10/06 03:46:40;;;;;;;7.07;6.37;;;11.10;99.90;;;;;;6248172;28;20479;-63
2022/10/06 03:49:43;;;;;;;7.80;7.10;;;11.20;99.90;;;;;;6248361;28;20481;-63
2022/10/06 03:52:50;;;;;;;6.53;5.93;;;11.20;99.90;;;;;;6249083;28;20479;-58
2022/10/06 03:56:01;;;;;;;8.03;7.33;;;11.20;99.90;;;;;;6248739;28;20529;-60
2022/10/06 03:59:05;;;;;;;7.60;6.13;;;11.20;99.90;;;;;;6248299;28;20479;-59
2022/10/06 04:02:10;;;;;;;7.80;7.20;;;11.20;99.90;;;;;;6248159;28;20494;-59
2022/10/06 04:05:13;;;;;;;9.90;6.53;;;11.20;99.90;;;;;;6247412;28;20478;-60
2022/10/06 04:08:16;;;;;;;7.57;6.97;;;11.10;99.90;;;;;;6247277;28;20975;-60
2022/10/06 04:11:23;;;;;;;6.93;6.27;;;11.10;99.90;;;;;;6247233;28;20502;-60
2022/10/06 04:14:26;;;;;;;8.83;7.23;;;11.10;99.90;;;;;;6247915;28;20974;-59
2022/10/06 04:17:29;;;;;;;9.77;7.40;;;11.00;99.90;;;;;;6247930;28;20471;-63
2022/10/06 04:20:32;;;;;;;7.47;6.80;;;10.90;99.90;;;;;;6248328;28;20467;-64
2022/10/06 04:23:36;;;;;;;7.40;6.80;;;10.90;99.90;;;;;;6248354;28;20476;-64
2022/10/06 04:26:44;;;;;;;9.00;7.93;;;10.90;99.90;;;;;;6251287;28;20525;-64
2022/10/06 04:29:47;;;;;;;8.50;7.60;;;10.90;99.90;;;;;;6252355;28;20466;-63
2022/10/06 04:32:50;;;;;;;9.20;7.93;;;10.90;99.90;;;;;;6252404;28;20471;-58
2022/10/06 04:35:58;;;;;;;8.17;6.80;;;10.90;99.90;;;;;;6252852;28;20553;-63
2022/10/06 04:39:03;;;;;;;8.40;7.40;;;10.90;99.90;;;;;;6253157;28;20495;-62
2022/10/06 04:42:08;;;;;;;8.53;7.57;;;10.90;99.90;;;;;;6253970;28;20483;-61
2022/10/06 04:45:11;;;;;;;8.53;6.83;;;10.90;99.90;;;;;;6252520;28;20487;-63
2022/10/06 04:48:14;;;;;;;7.90;7.27;;;10.90;99.90;;;;;;6243468;28;20850;-61
2022/10/06 04:51:18;;;;;;;9.40;7.30;;;10.80;99.90;;;;;;6252708;28;20475;-62
2022/10/06 04:54:21;;;;;;;12.00;7.07;;;10.80;99.90;;;;;;6251864;28;20542;-62
2022/10/06 04:57:26;;;;;;;12.40;8.07;;;10.80;99.90;;;;;;6251297;28;20479;-64
2022/10/06 05:00:29;;;;;;;7.67;7.07;;;10.90;99.90;;;;;;6251512;28;20458;-63
2022/10/06 05:03:32;;;;;;;11.93;8.23;;;10.90;99.90;;;;;;6251748;28;20447;-63
2022/10/06 05:06:37;;;;;;;10.07;8.90;;;10.90;99.90;;;;;;6252001;28;20471;-60
2022/10/06 05:09:40;;;;;;;10.07;9.00;;;10.90;99.90;;;;;;6251715;28;20455;-58
2022/10/06 05:12:45;;;;;;;8.97;8.00;;;11.00;99.90;;;;;;6252226;28;20543;-59
2022/10/06 05:15:55;;;;;;;8.57;7.73;;;11.00;99.90;;;;;;6251622;28;20945;-62
2022/10/06 05:18:59;;;;;;;9.90;7.10;;;11.00;99.90;;;;;;6252262;28;20482;-61
2022/10/06 05:22:02;;;;;;;7.37;6.77;;;11.00;99.90;;;;;;6251663;28;20467;-61
2022/10/06 05:25:06;;;;;;;8.20;7.40;;;11.00;99.90;;;;;;6251404;28;20475;-62
2022/10/06 05:28:10;;;;;;;11.03;8.20;;;11.00;99.90;;;;;;6251441;28;20471;-63
2022/10/06 05:31:15;;;;;;;8.33;7.27;;;11.10;99.90;;;;;;6251684;28;20822;-62
2022/10/06 05:34:18;;;;;;;8.53;7.50;;;11.10;99.90;;;;;;6251829;28;20546;-62
2022/10/06 05:37:21;;;;;;;8.37;7.27;;;11.10;99.90;;;;;;6251011;28;20510;-62
2022/10/06 05:40:25;;;;;;;9.23;6.90;;;11.10;99.90;;;;;;6251640;28;20541;-62
2022/10/06 05:43:29;;;;;;;8.80;8.10;;;11.20;99.90;;;;;;6243434;28;20482;-63
2022/10/06 05:46:33;;;;;;;8.27;6.73;;;11.30;99.90;;;;;;6238530;28;20487;-62
2022/10/06 05:49:36;;;;;;;12.30;8.57;;;11.30;99.90;;;;;;6242197;28;20474;-63
2022/10/06 05:52:41;;;;;;;11.00;9.90;;;11.40;99.90;;;;;;6229113;28;20479;-59
2022/10/06 05:55:44;;;;;;;10.87;9.73;;;11.50;99.90;;;;;;6226294;28;20586;-60
2022/10/06 05:58:50;;;;;;;11.57;10.37;;;11.60;99.90;;;;;;6226181;28;20491;-59
2022/10/06 06:01:53;;;;;;;8.53;7.83;;;11.70;99.90;;;;;;6225926;28;20472;-59
2022/10/06 06:04:56;;;;;;;12.17;9.00;;;11.70;99.90;;;;;;6225529;28;20475;-59
2022/10/06 06:07:59;;;;;;;9.30;8.40;;;11.90;99.90;;;;;;6225862;28;20526;-59
2022/10/06 06:11:07;;;;;;;10.00;9.07;;;12.00;99.90;;;;;;6225527;28;20480;-60
2022/10/06 06:14:13;;;;;;;13.63;8.13;;;12.00;99.90;;;;;;6226033;28;20961;-60
2022/10/06 06:17:15;;;;;;;8.37;7.30;;;12.10;99.90;;;;;;6226247;28;20813;-60
2022/10/06 06:20:18;;;;;;;9.53;7.97;;;12.20;99.90;;;;;;6226043;28;20472;-60
2022/10/06 06:23:21;;;;;;;8.13;7.33;;;12.30;99.90;;;;;;6225009;28;20479;-60
2022/10/06 06:26:26;;;;;;;8.17;7.40;;;12.40;99.90;;;;;;6225289;28;20538;-60
2022/10/06 06:29:31;;;;;;;7.13;6.50;;;12.50;99.90;;;;;;6225788;28;20557;-59
2022/10/06 06:32:34;;;;;;;11.10;8.60;;;12.60;99.90;;;;;;6225189;28;20484;-59
2022/10/06 06:35:37;;;;;;;9.03;8.23;;;12.60;99.90;;;;;;6225160;28;20484;-59
2022/10/06 06:38:40;;;;;;;9.27;8.43;;;12.70;99.90;;;;;;6225354;28;20563;-59
2022/10/06 06:41:45;;;;;;;11.33;7.70;;;12.80;99.90;;;;;;6224913;28;20880;-59
2022/10/06 06:44:49;;;;;;;9.63;8.70;;;12.90;99.90;;;;;;6224946;28;20793;-60
2022/10/06 06:47:52;;;;;;;9.33;7.97;;;13.00;99.90;;;;;;6224688;28;20476;-59
2022/10/06 06:50:57;;;;;;;11.53;8.50;;;13.10;99.90;;;;;;6225040;28;20487;-59
2022/10/06 06:54:01;;;;;;;8.30;7.40;;;13.20;99.90;;;;;;6220590;28;20513;-60
2022/10/06 06:57:05;;;;;;;7.60;6.80;;;13.30;99.90;;;;;;6225014;28;20480;-59
2022/10/06 07:00:11;;;;;;;7.93;7.23;;;13.40;99.90;;;;;;6224855;28;20506;-60
2022/10/06 07:03:16;;;;;;;9.27;8.27;;;13.60;99.90;;;;;;6225067;28;20839;-59
2022/10/06 07:06:40;;;;;;;8.10;7.30;;;13.70;99.90;;;;;;6224535;28;20893;-59
2022/10/06 07:09:43;;;;;;;8.27;7.40;;;13.80;99.90;;;;;;6225253;28;20452;-59
2022/10/06 07:12:47;;;;;;;8.67;7.73;;;13.90;99.90;;;;;;6224693;28;20447;-59
2022/10/06 07:25:54;;;;;;;9.07;7.37;;;14.60;99.90;;;;;;6225096;28;20480;-59
2022/10/06 07:28:58;;;;;;;12.07;7.47;;;14.70;99.90;;;;;;6224897;28;20531;-59
2022/10/06 07:32:03;;;;;;;8.33;7.23;;;15.30;99.90;;;;;;6224938;28;20484;-60
2022/10/06 07:35:07;;;;;;;8.73;6.40;;;18.20;99.90;;;;;;6224741;28;20546;-60
2022/10/06 07:38:10;;;;;;;9.13;6.63;;;22.00;99.90;;;;;;6224642;28;20240;-60
2022/10/06 07:41:13;;;;;;;7.30;6.57;;;25.40;92.50;;;;;;6224346;28;20243;-60
2022/10/06 07:44:22;;;;;;;7.80;7.00;;;28.00;76.50;;;;;;6224392;28;20685;-61
2022/10/06 07:47:26;;;;;;;8.07;7.30;;;28.50;64.30;;;;;;6224175;28;20225;-61
2022/10/06 07:50:29;;;;;;;9.47;6.27;;;27.20;62.70;;;;;;6224654;28;20244;-62
2022/10/06 07:53:34;;;;;;;12.10;7.30;;;26.20;64.40;;;;;;6224388;28;20232;-61
2022/10/06 07:56:37;;;;;;;7.33;6.63;;;27.30;63.40;;;;;;6219924;28;20236;-62
2022/10/06 07:59:40;;;;;;;8.20;6.03;;;29.80;57.30;;;;;;6224305;28;20594;-62
2022/10/06 08:02:45;;;;;;;6.40;5.80;;;31.80;50.80;;;;;;6229132;28;20243;-61
2022/10/06 08:05:50;;;;;;;6.57;5.97;;;32.10;47.90;;;;;;6229154;28;20242;-61
2022/10/06 08:08:53;;;;;;;6.22;5.72;;;33.20;44.90;;;;;;6228964;28;20617;-62
2022/10/06 08:11:57;;;;;;;6.57;5.93;;;35.20;41.00;;;;;;6227129;28;20275;-64
2022/10/06 08:15:02;;;;;;;5.82;5.15;;;36.80;38.80;;;;;;6228067;28;20228;-61
2022/10/06 08:18:11;;;;;;;7.05;6.20;;;38.10;36.30;;;;;;6228850;28;20240;-61
2022/10/06 08:21:34;;;;;;;7.20;5.70;;;39.40;33.20;;;;;;6228329;28;20641;-60
2022/10/06 08:24:37;;;;;;;7.13;5.57;;;41.00;30.30;;;;;;6246611;28;20229;-61
2022/10/06 08:28:00;;;;;;;7.03;5.30;;;42.20;28.70;;;;;;6250828;28;20691;-61
2022/10/06 08:31:05;;;;;;;6.78;5.28;;;43.30;26.60;;;;;;6227966;28;20664;-60
2022/10/06 08:34:10;;;;;;;6.25;5.15;;;43.60;25.50;;;;;;6227920;28;20259;-60
2022/10/06 08:37:14;;;;;;;5.55;5.05;;;44.30;25.10;;;;;;6228393;28;20232;-60
2022/10/06 08:40:22;;;;;;;6.18;5.47;;;45.50;24.20;;;;;;6228822;28;20278;-60
2022/10/06 08:43:27;;;;;;;5.40;4.95;;;46.60;22.50;;;;;;6228022;28;20228;-60
2022/10/06 08:46:36;;;;;;;5.07;4.57;;;47.20;21.60;;;;;;6228357;28;20234;-60
2022/10/06 08:49:44;;;;;;;7.07;4.70;;;48.20;20.80;;;;;;6227899;28;20239;-61
2022/10/06 08:52:55;;;;;;;4.40;4.00;;;48.90;20.00;;;;;;6228015;28;20289;-61
2022/10/06 08:56:06;;;;;;;6.90;4.43;;;49.00;19.50;;;;;;6228026;28;20237;-61
2022/10/06 08:59:09;;;;;;;5.93;5.43;;;49.40;19.60;;;;;;6223450;28;20532;-60
2022/10/06 09:02:24;;;;;;;20.27;8.07;;;49.70;19.10;;;;;;6227934;28;20238;-61
2022/10/06 09:05:30;;;;;;;5.75;5.35;;;49.40;18.40;;;;;;6225337;28;20227;-60
2022/10/06 09:08:42;;;;;;;5.93;5.05;;;49.00;18.50;;;;;;6227206;28;20234;-60
2022/10/06 09:11:55;;;;;;;6.20;4.82;;;48.60;18.80;;;;;;6226971;28;20224;-60
2022/10/06 09:15:08;;;;;;;6.20;5.60;;;45.90;19.80;;;;;;6227415;28;20250;-60
2022/10/06 09:18:17;;;;;;;5.45;5.05;;;44.80;21.30;;;;;;6226495;28;20228;-60
2022/10/06 09:21:30;;;;;;;4.78;4.38;;;45.60;20.50;;;;;;6226242;28;20224;-60
2022/10/06 09:24:37;;;;;;;4.80;4.35;;;47.00;19.80;;;;;;6225498;28;20306;-60
2022/10/06 09:27:51;;;;;;;4.20;3.85;;;48.20;18.90;;;;;;6226918;28;20240;-61
2022/10/06 09:30:55;;;;;;;8.45;4.65;;;49.60;18.20;;;;;;6225895;28;20231;-63
2022/10/06 09:34:04;;;;;;;11.20;5.28;;;50.80;17.30;;;;;;6226826;28;20331;-61
2022/10/06 09:37:11;;;;;;;5.10;4.60;;;51.50;17.10;;;;;;6226857;28;20595;-60
2022/10/06 09:40:35;;;;;;;6.78;6.07;;;52.80;16.30;;;;;;6226519;28;20850;-61
2022/10/06 09:43:39;;;;;;;6.70;5.45;;;53.00;16.00;;;;;;6226680;28;20236;-61
2022/10/06 09:46:42;;;;;;;5.85;5.35;;;53.40;16.10;;;;;;6225999;28;20302;-60
2022/10/06 09:50:19;;;;;;;5.80;5.20;;;53.70;15.70;;;;;;6226919;28;20298;-60
2022/10/06 09:53:25;;;;;;;6.10;4.95;;;53.70;15.10;;;;;;6227187;28;20315;-60
2022/10/06 09:56:29;;;;;;;8.82;4.88;;;53.20;15.20;;;;;;6226124;28;20247;-59
2022/10/06 09:59:35;;;;;;;4.85;4.45;;;54.10;14.60;;;;;;6226369;28;20232;-59
2022/10/06 10:02:42;;;;;;;7.05;4.82;;;55.10;14.20;;;;;;6220976;28;20570;-60
2022/10/06 10:05:48;;;;;;;4.97;4.32;;;55.60;13.80;;;;;;6225772;28;20543;-60
2022/10/06 10:09:12;;;;;;;4.68;4.20;;;55.90;13.80;;;;;;6225438;28;20239;-60
2022/10/06 10:12:32;;;;;;;3.83;3.50;;;54.50;14.10;;;;;;6225725;28;20232;-59
2022/10/06 10:15:48;;;;;;;5.43;4.18;;;53.90;13.80;;;;;;6225985;28;20235;-59
2022/10/06 10:18:52;;;;;;;4.90;4.50;;;53.90;14.30;;;;;;6226330;28;20326;-58
2022/10/06 10:21:56;;;;;;;4.53;3.92;;;53.60;14.30;;;;;;6226607;28;20232;-58
2022/10/06 10:25:12;;;;;;;6.75;3.85;;;54.00;13.80;;;;;;6232790;28;20234;-58
2022/10/06 10:28:28;;;;;;;4.15;3.85;;;53.40;14.00;;;;;;6251063;28;20232;-58
2022/10/06 10:31:46;;;;;;;3.22;3.03;;;52.70;13.90;;;;;;6250424;28;20239;-58
2022/10/06 10:35:04;;;;;;;3.28;2.97;;;53.30;13.60;;;;;;6249948;28;20251;-58
2022/10/06 10:38:14;;;;;;;2.83;2.63;;;53.00;13.60;;;;;;6250096;28;20266;-58
2022/10/06 10:41:24;;;;;;;2.80;2.60;;;52.50;13.90;;;;;;6249907;28;20243;-57
2022/10/06 10:44:30;;;;;;;2.80;2.60;;;51.40;14.30;;;;;;6249645;28;20246;-57
2022/10/06 10:47:37;;;;;;;3.45;3.15;;;51.40;14.50;;;;;;6250095;28;20345;-58
2022/10/06 10:50:50;;;;;;;3.33;2.85;;;49.30;15.40;;;;;;6249424;28;20580;-58
2022/10/06 10:53:57;;;;;;;3.92;3.53;;;48.10;16.00;;;;;;6249918;28;20242;-58
2022/10/06 10:57:02;;;;;;;4.13;3.72;;;46.40;17.00;;;;;;6249667;28;20254;-58
2022/10/06 11:00:08;;;;;;;3.58;3.13;;;43.90;18.40;;;;;;6250104;28;20294;-58
2022/10/06 11:03:11;;;;;;;3.10;2.80;;;40.70;19.80;;;;;;6250127;28;20239;-58
2022/10/06 11:06:27;;;;;;;3.67;3.35;;;39.50;21.50;;;;;;6226763;28;20247;-57
2022/10/06 11:09:39;;;;;;;5.28;3.38;;;39.50;22.10;;;;;;6216155;28;20233;-57
2022/10/06 11:13:03;;;;;;;2.97;2.75;;;41.80;21.30;;;;;;6225349;28;20285;-57
2022/10/06 11:16:17;;;;;;;3.60;3.30;;;44.60;19.20;;;;;;6224929;28;20247;-58
2022/10/06 11:19:33;;;;;;;3.20;3.00;;;47.50;17.70;;;;;;6224868;28;20216;-58
2022/10/06 11:22:41;;;;;;;3.53;3.33;;;49.50;16.40;;;;;;6224925;28;20234;-58
2022/10/06 11:25:49;;;;;;;8.10;3.50;;;49.30;16.10;;;;;;6224420;28;20241;-59
2022/10/06 11:29:01;;;;;;;3.70;3.50;;;47.70;16.60;;;;;;6248604;28;20239;-59
2022/10/06 11:32:17;;;;;;;4.18;3.65;;;44.70;18.40;;;;;;6248667;28;20236;-59
2022/10/06 11:35:22;;;;;;;3.63;3.10;;;41.80;20.60;;;;;;6251141;28;20239;-59
2022/10/06 11:38:30;;;;;;;3.30;3.00;;;42.40;20.50;;;;;;6253982;28;20230;-57
2022/10/06 11:41:38;;;;;;;4.75;3.22;;;42.50;20.60;;;;;;6254035;28;20230;-57
2022/10/06 11:44:45;;;;;;;3.22;3.03;;;45.20;18.90;;;;;;6253684;28;20254;-57
2022/10/06 11:48:12;;;;;;;3.30;3.10;;;47.80;17.30;;;;;;6253058;28;20231;-58
2022/10/06 11:51:29;;;;;;;2.80;2.60;;;50.50;16.20;;;;;;6253176;28;20305;-58
2022/10/06 11:54:47;;;;;;;3.15;2.95;;;52.20;14.70;;;;;;6252603;28;20301;-59
2022/10/06 11:58:09;;;;;;;3.42;3.10;;;53.10;14.30;;;;;;6252851;28;20204;-59
2022/10/06 12:01:56;;;;;;;3.72;3.42;;;52.60;14.50;;;;;;6253208;28;20306;-59
2022/10/06 12:05:33;;;;;;;4.20;2.78;;;50.40;14.70;;;;;;6233805;28;20281;-58
2022/10/06 12:08:57;;;;;;;3.35;3.05;;;47.60;16.10;;;;;;6228267;28;20274;-58
2022/10/06 12:12:02;;;;;;;3.78;2.95;;;45.80;17.30;;;;;;6228549;28;20548;-57
2022/10/06 12:15:16;;;;;;;3.72;3.28;;;45.00;18.40;;;;;;6214171;28;20243;-58
2022/10/06 12:18:49;;;;;;;3.78;3.47;;;45.80;18.70;;;;;;6227929;28;20355;-59
2022/10/06 12:22:00;;;;;;;3.95;3.50;;;46.10;18.30;;;;;;6228670;28;20274;-59
2022/10/06 12:25:11;;;;;;;5.65;3.42;;;44.90;18.90;;;;;;6228485;28;20249;-59
2022/10/06 12:28:28;;;;;;;4.57;4.18;;;42.00;20.70;;;;;;6228308;28;20230;-59
2022/10/06 12:31:44;;;;;;;5.80;3.28;;;40.90;21.80;;;;;;6228659;28;20241;-58
2022/10/06 12:34:57;;;;;;;3.63;3.28;;;39.60;22.50;;;;;;6227895;28;20247;-58
2022/10/06 12:38:04;;;;;;;3.55;3.35;;;40.20;23.00;;;;;;6227920;28;20237;-58
2022/10/06 12:41:10;;;;;;;3.83;3.53;;;41.00;21.90;;;;;;6233483;28;20222;-58
2022/10/06 12:44:23;;;;;;;3.20;2.92;;;41.70;21.70;;;;;;6227947;28;20261;-58
2022/10/06 12:47:34;;;;;;;3.10;2.90;;;44.00;20.30;;;;;;6227037;28;20250;-59
2022/10/06 12:50:41;;;;;;;3.33;3.08;;;45.00;19.30;;;;;;6228100;28;20243;-59
2022/10/06 12:53:53;;;;;;;4.50;3.67;;;45.90;18.80;;;;;;6227706;28;20282;-59
2022/10/06 12:56:58;;;;;;;3.67;3.38;;;45.30;18.80;;;;;;6228937;28;20234;-58
2022/10/06 13:00:01;;;;;;;3.60;3.30;;;43.20;20.10;;;;;;6231679;28;20236;-58
2022/10/06 13:03:07;;;;;;;3.30;3.10;;;43.30;20.30;;;;;;6240803;28;20230;-60
2022/10/06 13:06:12;;;;;;;3.28;3.05;;;44.30;19.50;;;;;;6227282;28;20238;-59
2022/10/06 13:09:15;;;;;;;3.45;3.25;;;43.90;20.00;;;;;;6227590;28;20250;-59
2022/10/06 13:12:30;;;;;;;4.45;3.42;;;44.70;19.80;;;;;;6227370;28;20257;-59
2022/10/06 13:15:40;;;;;;;4.22;2.67;;;45.60;19.20;;;;;;6213948;28;20239;-59
2022/10/06 13:18:43;;;;;;;3.78;3.47;;;45.70;18.90;;;;;;6227554;28;20203;-59
2022/10/06 13:21:48;;;;;;;8.30;3.97;;;45.30;18.80;;;;;;6226816;28;20213;-59
2022/10/06 13:24:59;;;;;;;4.65;4.30;;;42.40;20.50;;;;;;6227031;28;20231;-59
2022/10/06 13:28:03;;;;;;;3.28;3.08;;;41.20;21.70;;;;;;6227056;28;20249;-59
2022/10/06 13:31:18;;;;;;;3.67;3.38;;;40.30;22.70;;;;;;6226867;28;20321;-58
2022/10/06 13:34:28;;;;;;;6.20;3.30;;;37.10;25.30;;;;;;6226344;28;20237;-57
2022/10/06 13:37:32;;;;;;;4.53;3.90;;;35.80;26.70;;;;;;6226621;28;20713;-58
2022/10/06 13:40:35;;;;;;;4.50;4.10;;;33.70;28.50;;;;;;6227307;28;20233;-58
2022/10/06 13:43:51;;;;;;;4.75;4.25;;;32.30;30.00;;;;;;6227582;28;20318;-59
2022/10/06 13:46:57;;;;;;;3.53;3.22;;;30.90;32.00;;;;;;6226734;28;20620;-58
2022/10/06 13:50:02;;;;;;;6.57;4.20;;;30.10;33.20;;;;;;6226070;28;20240;-58
2022/10/06 13:53:25;;;;;;;4.43;4.03;;;29.30;34.80;;;;;;6226602;28;20228;-59
2022/10/06 13:56:37;;;;;;;5.70;3.40;;;28.40;36.30;;;;;;6225472;28;20241;-59
2022/10/06 13:59:41;;;;;;;4.07;3.73;;;27.90;37.60;;;;;;6226299;28;20232;-59
2022/10/06 14:02:45;;;;;;;3.23;2.93;;;27.70;37.90;;;;;;6225847;28;20247;-60
2022/10/06 14:05:50;;;;;;;4.87;3.70;;;27.60;38.50;;;;;;6226694;28;20246;-59
2022/10/06 14:08:57;;;;;;;4.87;3.47;;;27.40;38.70;;;;;;6226836;28;20303;-58
2022/10/06 14:12:07;;;;;;;4.13;3.80;;;27.20;39.50;;;;;;6226361;28;20232;-59
2022/10/06 14:15:17;;;;;;;4.77;3.87;;;27.00;39.60;;;;;;6225885;28;20232;-57
2022/10/06 14:18:25;;;;;;;4.60;4.20;;;26.90;40.20;;;;;;6216432;28;20243;-57
2022/10/06 14:21:33;;;;;;;4.03;3.27;;;26.50;40.80;;;;;;6225582;28;20220;-57
2022/10/06 14:24:37;;;;;;;4.43;4.03;;;26.30;41.80;;;;;;6225544;28;20239;-57
2022/10/06 14:27:40;;;;;;;10.53;4.30;;;25.80;43.10;;;;;;6225842;28;20200;-57
2022/10/06 14:30:44;;;;;;;4.30;4.00;;;25.40;44.20;;;;;;6225797;28;20228;-58
2022/10/06 14:33:48;;;;;;;4.50;4.07;;;25.40;44.70;;;;;;6225324;28;20383;-59
2022/10/06 14:36:52;;;;;;;4.00;3.60;;;25.30;44.50;;;;;;6224911;28;20239;-58
2022/10/06 14:39:56;;;;;;;4.87;3.90;;;25.10;44.50;;;;;;6225259;28;20666;-57
2022/10/06 14:43:00;;;;;;;5.40;4.83;;;24.90;45.20;;;;;;6225439;28;20224;-58
2022/10/06 14:46:04;;;;;;;5.60;4.37;;;24.70;46.20;;;;;;6225460;28;20239;-57
2022/10/06 14:49:10;;;;;;;4.93;3.90;;;24.40;47.00;;;;;;6224933;28;20236;-58
2022/10/06 14:52:13;;;;;;;4.67;4.27;;;24.20;47.40;;;;;;6224984;28;20240;-58
2022/10/06 14:55:18;;;;;;;4.77;4.17;;;24.10;47.80;;;;;;6225376;28;20295;-59
2022/10/06 14:58:21;;;;;;;4.53;4.13;;;24.10;48.50;;;;;;6225066;28;20225;-58
2022/10/06 15:01:27;;;;;;;4.80;4.40;;;23.80;50.00;;;;;;6224835;28;20229;-57
2022/10/06 15:04:30;;;;;;;6.93;4.13;;;23.60;51.00;;;;;;6224385;28;20310;-59
2022/10/06 15:10:55;;;;;;;5.13;4.43;;;23.50;51.70;;;;;;6248668;28;20621;-57
2022/10/06 15:13:59;;;;;;;5.53;4.23;;;23.30;52.20;;;;;;6248965;28;20232;-57
2022/10/06 15:17:02;;;;;;;5.20;3.80;;;23.20;52.40;;;;;;6229549;28;20299;-57
2022/10/06 15:20:06;;;;;;;4.50;3.73;;;23.20;52.80;;;;;;6219366;28;20221;-57
2022/10/06 15:23:09;;;;;;;5.07;4.10;;;23.10;53.50;;;;;;6227143;28;20236;-57
2022/10/06 15:29:49;;;;;;;6.43;4.53;;;22.80;55.90;;;;;;6184082;28;20229;-57
2022/10/06 15:32:53;;;;;;;5.70;4.70;;;22.70;56.80;;;;;;6186219;28;20330;-57
2022/10/06 15:36:17;;;;;;;4.60;4.17;;;22.70;57.50;;;;;;6245957;28;20699;-57
2022/10/06 15:39:22;;;;;;;5.40;4.63;;;22.60;58.30;;;;;;6248828;28;20279;-57
2022/10/06 15:42:27;;;;;;;6.00;4.27;;;22.50;58.90;;;;;;6248670;28;20708;-57
2022/10/06 15:45:30;;;;;;;5.83;5.23;;;22.50;59.40;;;;;;6248456;28;20289;-57
2022/10/06 15:48:33;;;;;;;6.10;5.43;;;22.40;60.30;;;;;;6245064;28;20228;-57
2022/10/06 15:51:43;;;;;;;6.13;4.93;;;22.30;60.80;;;;;;6236616;28;20213;-56
2022/10/06 15:54:48;;;;;;;5.27;4.80;;;22.30;61.60;;;;;;6224279;28;20225;-56
2022/10/06 15:57:53;;;;;;;5.40;4.90;;;22.20;62.40;;;;;;6231941;28;20280;-57
2022/10/06 16:00:56;;;;;;;6.70;4.90;;;22.20;63.50;;;;;;6243220;28;20232;-56
2022/10/06 16:04:05;;;;;;;5.93;5.43;;;22.20;64.10;;;;;;6243643;28;20572;-57
2022/10/06 16:07:11;;;;;;;5.87;5.37;;;22.10;64.70;;;;;;6233474;28;20233;-57
2022/10/06 16:10:15;;;;;;;5.80;5.20;;;22.00;65.30;;;;;;6234010;28;20251;-57
2022/10/06 16:13:19;;;;;;;6.10;5.50;;;22.00;65.60;;;;;;6233156;28;20260;-58
2022/10/06 16:16:22;;;;;;;6.77;6.07;;;22.00;66.60;;;;;;6226005;28;20724;-56
2022/10/06 16:19:27;;;;;;;8.77;6.53;;;21.90;68.00;;;;;;6235859;28;20228;-57
2022/10/06 16:22:30;;;;;;;6.33;5.73;;;21.90;68.80;;;;;;6246725;28;20232;-56
2022/10/06 16:25:33;;;;;;;6.20;5.47;;;21.80;69.80;;;;;;6246514;28;20290;-56
2022/10/06 16:28:38;;;;;;;9.27;5.03;;;21.80;70.90;;;;;;6239038;28;20228;-57